Portsmouth, New Hampshire
Current Conditions -  °F | °C
As of 3:58 PM on Sunday 23 Nov 2014 (Local Time) from KPSM Reporting Station
Broken Clouds Broken Clouds  
Wind Chill: 54°   Ceiling: 25000
Heat Index: 54°   Visibility: 10mi
Dew Point: 39°   Wind: 0mph
Humidity: 59%   Direction: NA
Pressure: 30.08"   Gusts: NA
Location:  43.07°N, 70.77°W
Report Text: KPSM 232058Z 00000KT 10SM FEW130 BKN250 12/04 A3008 RMK AO2A SLP190 T01200041 52005
Loading
Personal Weather Stations






























Interactive Weather Map New forecast layout! Learn more

10-Day Weather Forecast

Advertisements
Track Severe Weather on mobile